Terminal Aerodrome Forecast
Issued by NWS

Home | Current Version | Previous Version | Text Only | Print | Product List | Glossary On
Versions: 1 2 3 4 5 6 7 8 9 10 11 12 13 14 15 16 17
000
FTUS42 KTBW 291507 AAA
TAFRSW
TAF AMD
KRSW 291507Z 2915/3012 07004KT P6SM SCT020 SCT250
      TEMPO 2915/2917 BKN020
     FM291700 08008KT P6SM VCTS SCT030CB SCT130 BKN250
     FM292000 06008KT P6SM VCTS BKN040CB
     FM300000 07006KT P6SM SCT040 BKN130=

USA.gov is the U.S. government's official web portal to all federal, state and local government web resources and services.